Terminal Aerodrome Forecast
Issued by NWS

Home | Current Version | Previous Version | Text Only | Print | Product List | Glossary On
Versions: 1 2 3 4 5 6 7 8 9 10 11 12 13 14 15 16 17 18
000
FTAK31 PAJN 201700
TAFAGY
TAF
PAGY 201723Z 2018/2118 21014G24KT P6SM -RA SCT025 OVC040
     FM202200 VRB06KT P6SM SCT050 BKN100
     FM210600 03005KT P6SM FEW050 SCT100
     FM211500 04004KT P6SM BKN080
      AMD LTD TO CLD VIS AND WIND=

USA.gov is the U.S. government's official web portal to all federal, state and local government web resources and services.